sensor_id;sensor_type;location;lat;lon;timestamp;temperature;humidity
19972;DHT22;10147;16.402;102.848;2024-01-25T00:02:14;19.90;99.90
19972;DHT22;10147;16.402;102.848;2024-01-25T00:04:44;19.90;99.90
19972;DHT22;10147;16.402;102.848;2024-01-25T00:07:14;19.90;99.90
19972;DHT22;10147;16.402;102.848;2024-01-25T00:09:45;20.10;99.90
19972;DHT22;10147;16.402;102.848;2024-01-25T00:12:14;20.10;99.90
19972;DHT22;10147;16.402;102.848;2024-01-25T00:14:45;20.20;99.90
19972;DHT22;10147;16.402;102.848;2024-01-25T00:17:15;20.30;99.90
19972;DHT22;10147;16.402;102.848;2024-01-25T00:19:46;20.20;99.90
19972;DHT22;10147;16.402;102.848;2024-01-25T00:22:17;20.30;99.90
19972;DHT22;10147;16.402;102.848;2024-01-25T00:24:47;20.30;99.90
19972;DHT22;10147;16.402;102.848;2024-01-25T00:27:17;20.30;99.90
19972;DHT22;10147;16.402;102.848;2024-01-25T00:29:48;20.00;99.90
19972;DHT22;10147;16.402;102.848;2024-01-25T00:32:18;19.80;99.90
19972;DHT22;10147;16.402;102.848;2024-01-25T00:34:58;19.90;99.90
19972;DHT22;10147;16.402;102.848;2024-01-25T00:37:29;19.90;99.90
19972;DHT22;10147;16.402;102.848;2024-01-25T00:40:02;19.90;99.90
19972;DHT22;10147;16.402;102.848;2024-01-25T00:42:43;19.90;99.90
19972;DHT22;10147;16.402;102.848;2024-01-25T00:45:13;20.10;99.90
19972;DHT22;10147;16.402;102.848;2024-01-25T00:47:44;20.10;99.90
19972;DHT22;10147;16.402;102.848;2024-01-25T00:50:15;20.20;99.90
19972;DHT22;10147;16.402;102.848;2024-01-25T00:52:55;20.30;99.90
19972;DHT22;10147;16.402;102.848;2024-01-25T00:55:25;20.50;99.90
19972;DHT22;10147;16.402;102.848;2024-01-25T00:57:56;20.50;99.90
19972;DHT22;10147;16.402;102.848;2024-01-25T01:00:27;20.50;99.90
19972;DHT22;10147;16.402;102.848;2024-01-25T01:02:58;20.50;99.90
19972;DHT22;10147;16.402;102.848;2024-01-25T01:05:30;20.50;99.90
19972;DHT22;10147;16.402;102.848;2024-01-25T01:08:01;20.40;99.90
19972;DHT22;10147;16.402;102.848;2024-01-25T01:10:32;20.30;99.90
19972;DHT22;10147;16.402;102.848;2024-01-25T01:13:03;20.20;99.90
19972;DHT22;10147;16.402;102.848;2024-01-25T01:15:33;20.30;99.90
19972;DHT22;10147;16.402;102.848;2024-01-25T01:18:03;20.40;99.90
19972;DHT22;10147;16.402;102.848;2024-01-25T01:20:35;20.30;99.90
19972;DHT22;10147;16.402;102.848;2024-01-25T01:23:05;20.40;99.90
19972;DHT22;10147;16.402;102.848;2024-01-25T01:25:35;20.60;99.90
19972;DHT22;10147;16.402;102.848;2024-01-25T01:28:05;20.60;99.90
19972;DHT22;10147;16.402;102.848;2024-01-25T01:30:36;20.50;99.90
19972;DHT22;10147;16.402;102.848;2024-01-25T01:33:07;20.50;99.90
19972;DHT22;10147;16.402;102.848;2024-01-25T01:35:37;20.50;99.90
19972;DHT22;10147;16.402;102.848;2024-01-25T01:38:07;20.50;99.90
19972;DHT22;10147;16.402;102.848;2024-01-25T01:40:40;20.60;99.90
19972;DHT22;10147;16.402;102.848;2024-01-25T01:43:21;20.60;99.90
19972;DHT22;10147;16.402;102.848;2024-01-25T01:45:54;20.70;99.90
19972;DHT22;10147;16.402;102.848;2024-01-25T01:48:29;20.80;99.90
19972;DHT22;10147;16.402;102.848;2024-01-25T01:51:01;21.00;99.90
19972;DHT22;10147;16.402;102.848;2024-01-25T01:53:33;21.10;99.90
19972;DHT22;10147;16.402;102.848;2024-01-25T01:56:05;21.10;99.90
19972;DHT22;10147;16.402;102.848;2024-01-25T01:58:35;21.10;99.90
19972;DHT22;10147;16.402;102.848;2024-01-25T02:01:06;21.00;99.90
19972;DHT22;10147;16.402;102.848;2024-01-25T02:03:37;21.10;99.90
19972;DHT22;10147;16.402;102.848;2024-01-25T02:06:07;21.10;99.90
19972;DHT22;10147;16.402;102.848;2024-01-25T02:08:38;21.10;99.90
19972;DHT22;10147;16.402;102.848;2024-01-25T02:11:11;21.20;99.90
19972;DHT22;10147;16.402;102.848;2024-01-25T02:13:42;21.20;99.90
19972;DHT22;10147;16.402;102.848;2024-01-25T02:16:12;21.10;99.90
19972;DHT22;10147;16.402;102.848;2024-01-25T02:18:45;21.30;99.90
19972;DHT22;10147;16.402;102.848;2024-01-25T02:21:16;21.20;99.90
19972;DHT22;10147;16.402;102.848;2024-01-25T02:23:46;21.20;99.90
19972;DHT22;10147;16.402;102.848;2024-01-25T02:26:17;21.20;99.90
19972;DHT22;10147;16.402;102.848;2024-01-25T02:28:47;21.20;99.90
19972;DHT22;10147;16.402;102.848;2024-01-25T02:31:22;21.30;99.90
19972;DHT22;10147;16.402;102.848;2024-01-25T02:33:52;21.40;99.90
19972;DHT22;10147;16.402;102.848;2024-01-25T02:36:23;21.50;99.90
19972;DHT22;10147;16.402;102.848;2024-01-25T02:38:53;21.50;99.90
19972;DHT22;10147;16.402;102.848;2024-01-25T02:41:28;21.50;99.90
19972;DHT22;10147;16.402;102.848;2024-01-25T02:44:00;21.70;99.90
19972;DHT22;10147;16.402;102.848;2024-01-25T02:46:31;21.60;99.90
19972;DHT22;10147;16.402;102.848;2024-01-25T02:49:01;21.60;99.90
19972;DHT22;10147;16.402;102.848;2024-01-25T02:51:31;21.60;99.90
19972;DHT22;10147;16.402;102.848;2024-01-25T02:54:02;21.50;99.90
19972;DHT22;10147;16.402;102.848;2024-01-25T02:56:32;21.50;99.90
19972;DHT22;10147;16.402;102.848;2024-01-25T02:59:05;21.40;99.90
19972;DHT22;10147;16.402;102.848;2024-01-25T03:01:41;21.40;99.90
19972;DHT22;10147;16.402;102.848;2024-01-25T03:04:12;21.50;99.90
19972;DHT22;10147;16.402;102.848;2024-01-25T03:06:42;21.50;99.90
19972;DHT22;10147;16.402;102.848;2024-01-25T03:09:13;21.70;99.90
19972;DHT22;10147;16.402;102.848;2024-01-25T03:11:43;21.60;99.90
19972;DHT22;10147;16.402;102.848;2024-01-25T03:14:13;21.70;99.90
19972;DHT22;10147;16.402;102.848;2024-01-25T03:16:43;21.60;99.90
19972;DHT22;10147;16.402;102.848;2024-01-25T03:19:14;21.60;99.90
19972;DHT22;10147;16.402;102.848;2024-01-25T03:21:44;21.50;99.90
19972;DHT22;10147;16.402;102.848;2024-01-25T03:24:14;21.50;99.90
19972;DHT22;10147;16.402;102.848;2024-01-25T03:26:44;21.70;99.90
19972;DHT22;10147;16.402;102.848;2024-01-25T03:29:15;21.70;99.90
19972;DHT22;10147;16.402;102.848;2024-01-25T03:31:45;21.80;99.90
19972;DHT22;10147;16.402;102.848;2024-01-25T03:34:15;21.90;99.90
19972;DHT22;10147;16.402;102.848;2024-01-25T03:36:45;22.00;99.90
19972;DHT22;10147;16.402;102.848;2024-01-25T03:39:16;22.00;99.90
19972;DHT22;10147;16.402;102.848;2024-01-25T03:41:48;22.20;99.90
19972;DHT22;10147;16.402;102.848;2024-01-25T03:44:19;22.20;99.90
19972;DHT22;10147;16.402;102.848;2024-01-25T03:46:50;22.20;99.90
19972;DHT22;10147;16.402;102.848;2024-01-25T03:49:20;22.10;99.90
19972;DHT22;10147;16.402;102.848;2024-01-25T03:51:52;22.10;99.90
19972;DHT22;10147;16.402;102.848;2024-01-25T03:54:22;22.20;99.90
19972;DHT22;10147;16.402;102.848;2024-01-25T03:56:52;22.20;99.90
19972;DHT22;10147;16.402;102.848;2024-01-25T03:59:22;22.20;99.90
19972;DHT22;10147;16.402;102.848;2024-01-25T04:01:53;22.20;99.90
19972;DHT22;10147;16.402;102.848;2024-01-25T04:04:23;22.20;99.90
19972;DHT22;10147;16.402;102.848;2024-01-25T04:06:53;22.30;99.90
19972;DHT22;10147;16.402;102.848;2024-01-25T04:09:23;22.40;99.90
19972;DHT22;10147;16.402;102.848;2024-01-25T04:11:54;22.50;99.90
19972;DHT22;10147;16.402;102.848;2024-01-25T04:14:24;22.50;99.90
19972;DHT22;10147;16.402;102.848;2024-01-25T04:16:54;22.60;99.90
19972;DHT22;10147;16.402;102.848;2024-01-25T04:19:25;22.70;99.90
19972;DHT22;10147;16.402;102.848;2024-01-25T04:21:55;22.70;99.90
19972;DHT22;10147;16.402;102.848;2024-01-25T04:24:26;22.70;99.90
19972;DHT22;10147;16.402;102.848;2024-01-25T04:26:56;22.70;99.90
19972;DHT22;10147;16.402;102.848;2024-01-25T04:29:27;22.70;99.90
19972;DHT22;10147;16.402;102.848;2024-01-25T04:31:57;22.50;99.90
19972;DHT22;10147;16.402;102.848;2024-01-25T04:34:27;22.60;99.90
19972;DHT22;10147;16.402;102.848;2024-01-25T04:36:58;22.80;99.90
19972;DHT22;10147;16.402;102.848;2024-01-25T04:39:28;22.90;99.90
19972;DHT22;10147;16.402;102.848;2024-01-25T04:41:59;22.70;99.90
19972;DHT22;10147;16.402;102.848;2024-01-25T04:44:31;22.60;99.90
19972;DHT22;10147;16.402;102.848;2024-01-25T04:47:01;22.80;99.90
19972;DHT22;10147;16.402;102.848;2024-01-25T04:49:31;22.90;99.90
19972;DHT22;10147;16.402;102.848;2024-01-25T04:52:03;22.90;99.90
19972;DHT22;10147;16.402;102.848;2024-01-25T04:54:32;23.10;99.90
19972;DHT22;10147;16.402;102.848;2024-01-25T04:57:03;23.20;99.90
19972;DHT22;10147;16.402;102.848;2024-01-25T04:59:36;23.30;99.90
19972;DHT22;10147;16.402;102.848;2024-01-25T05:02:06;23.40;99.90
19972;DHT22;10147;16.402;102.848;2024-01-25T05:04:37;23.40;99.90
19972;DHT22;10147;16.402;102.848;2024-01-25T05:07:10;23.40;99.90
19972;DHT22;10147;16.402;102.848;2024-01-25T05:09:40;23.50;99.90
19972;DHT22;10147;16.402;102.848;2024-01-25T05:12:10;23.60;99.90
19972;DHT22;10147;16.402;102.848;2024-01-25T05:14:40;23.90;99.90
19972;DHT22;10147;16.402;102.848;2024-01-25T05:17:12;24.20;99.90
19972;DHT22;10147;16.402;102.848;2024-01-25T05:19:43;24.10;99.90
19972;DHT22;10147;16.402;102.848;2024-01-25T05:22:13;24.00;99.90
19972;DHT22;10147;16.402;102.848;2024-01-25T05:24:43;24.00;99.90
19972;DHT22;10147;16.402;102.848;2024-01-25T05:27:16;23.70;99.90
19972;DHT22;10147;16.402;102.848;2024-01-25T05:29:46;23.70;99.90
19972;DHT22;10147;16.402;102.848;2024-01-25T05:32:16;23.80;99.90
19972;DHT22;10147;16.402;102.848;2024-01-25T05:34:47;23.80;99.90
19972;DHT22;10147;16.402;102.848;2024-01-25T05:37:17;23.90;99.90
19972;DHT22;10147;16.402;102.848;2024-01-25T05:39:48;23.90;99.90
19972;DHT22;10147;16.402;102.848;2024-01-25T05:42:20;23.90;99.90
19972;DHT22;10147;16.402;102.848;2024-01-25T05:44:51;23.60;99.90
19972;DHT22;10147;16.402;102.848;2024-01-25T05:47:22;23.70;99.90
19972;DHT22;10147;16.402;102.848;2024-01-25T05:49:52;23.90;99.90
19972;DHT22;10147;16.402;102.848;2024-01-25T05:52:22;23.90;99.90
19972;DHT22;10147;16.402;102.848;2024-01-25T05:54:54;23.80;99.90
19972;DHT22;10147;16.402;102.848;2024-01-25T05:57:24;24.00;99.90
19972;DHT22;10147;16.402;102.848;2024-01-25T05:59:54;24.00;99.90
19972;DHT22;10147;16.402;102.848;2024-01-25T06:02:25;23.90;99.90
19972;DHT22;10147;16.402;102.848;2024-01-25T06:04:55;23.90;99.90
19972;DHT22;10147;16.402;102.848;2024-01-25T06:07:28;23.90;99.90
19972;DHT22;10147;16.402;102.848;2024-01-25T06:09:58;23.90;99.90
19972;DHT22;10147;16.402;102.848;2024-01-25T06:12:28;23.80;99.90
19972;DHT22;10147;16.402;102.848;2024-01-25T06:14:58;23.70;99.90
19972;DHT22;10147;16.402;102.848;2024-01-25T06:17:28;23.70;99.90
19972;DHT22;10147;16.402;102.848;2024-01-25T06:19:58;23.70;99.90
19972;DHT22;10147;16.402;102.848;2024-01-25T06:22:29;23.60;99.90
19972;DHT22;10147;16.402;102.848;2024-01-25T06:24:59;23.70;99.90
19972;DHT22;10147;16.402;102.848;2024-01-25T06:27:29;23.50;99.90
19972;DHT22;10147;16.402;102.848;2024-01-25T06:29:59;23.40;99.90
19972;DHT22;10147;16.402;102.848;2024-01-25T06:32:29;23.40;99.90
19972;DHT22;10147;16.402;102.848;2024-01-25T06:34:59;23.60;99.90
19972;DHT22;10147;16.402;102.848;2024-01-25T06:37:30;23.50;99.90
19972;DHT22;10147;16.402;102.848;2024-01-25T06:40:00;23.40;99.90
19972;DHT22;10147;16.402;102.848;2024-01-25T06:42:33;23.40;99.90
19972;DHT22;10147;16.402;102.848;2024-01-25T06:45:03;23.40;99.90
19972;DHT22;10147;16.402;102.848;2024-01-25T06:47:33;23.40;99.90
19972;DHT22;10147;16.402;102.848;2024-01-25T06:50:04;23.40;99.90
19972;DHT22;10147;16.402;102.848;2024-01-25T06:52:34;23.30;99.90
19972;DHT22;10147;16.402;102.848;2024-01-25T06:55:05;23.30;99.90
19972;DHT22;10147;16.402;102.848;2024-01-25T06:57:35;23.40;99.90
19972;DHT22;10147;16.402;102.848;2024-01-25T07:00:05;23.30;99.90
19972;DHT22;10147;16.402;102.848;2024-01-25T07:02:36;23.40;99.90
19972;DHT22;10147;16.402;102.848;2024-01-25T07:05:07;23.20;99.90
19972;DHT22;10147;16.402;102.848;2024-01-25T07:07:38;23.20;99.90
19972;DHT22;10147;16.402;102.848;2024-01-25T07:10:09;23.10;99.90
19972;DHT22;10147;16.402;102.848;2024-01-25T07:12:39;23.20;99.90
19972;DHT22;10147;16.402;102.848;2024-01-25T07:15:09;23.20;99.90
19972;DHT22;10147;16.402;102.848;2024-01-25T07:17:40;23.20;99.90
19972;DHT22;10147;16.402;102.848;2024-01-25T07:20:12;23.20;99.90
19972;DHT22;10147;16.402;102.848;2024-01-25T07:22:43;23.30;99.90
19972;DHT22;10147;16.402;102.848;2024-01-25T07:25:12;23.30;99.90
19972;DHT22;10147;16.402;102.848;2024-01-25T07:27:47;23.40;99.90
19972;DHT22;10147;16.402;102.848;2024-01-25T07:30:18;23.40;99.90
19972;DHT22;10147;16.402;102.848;2024-01-25T07:32:48;23.40;99.90
19972;DHT22;10147;16.402;102.848;2024-01-25T07:35:19;23.50;99.90
19972;DHT22;10147;16.402;102.848;2024-01-25T07:37:49;23.50;99.90
19972;DHT22;10147;16.402;102.848;2024-01-25T07:40:20;23.20;99.90
19972;DHT22;10147;16.402;102.848;2024-01-25T07:42:50;23.10;99.90
19972;DHT22;10147;16.402;102.848;2024-01-25T07:45:22;23.10;99.90
19972;DHT22;10147;16.402;102.848;2024-01-25T07:47:52;23.10;99.90
19972;DHT22;10147;16.402;102.848;2024-01-25T07:50:36;23.10;99.90
19972;DHT22;10147;16.402;102.848;2024-01-25T07:53:06;23.20;99.90
19972;DHT22;10147;16.402;102.848;2024-01-25T07:55:36;23.30;99.90
19972;DHT22;10147;16.402;102.848;2024-01-25T07:58:07;23.30;99.90
19972;DHT22;10147;16.402;102.848;2024-01-25T08:00:37;23.30;99.90
19972;DHT22;10147;16.402;102.848;2024-01-25T08:03:08;23.30;99.90
19972;DHT22;10147;16.402;102.848;2024-01-25T08:05:39;23.30;99.90
19972;DHT22;10147;16.402;102.848;2024-01-25T08:08:18;23.30;99.90
19972;DHT22;10147;16.402;102.848;2024-01-25T08:10:48;23.30;99.90
19972;DHT22;10147;16.402;102.848;2024-01-25T08:13:20;23.40;99.90
19972;DHT22;10147;16.402;102.848;2024-01-25T08:15:51;23.40;99.90
19972;DHT22;10147;16.402;102.848;2024-01-25T08:18:21;23.10;99.90
19972;DHT22;10147;16.402;102.848;2024-01-25T08:20:53;23.20;99.90
19972;DHT22;10147;16.402;102.848;2024-01-25T08:23:23;23.30;99.90
19972;DHT22;10147;16.402;102.848;2024-01-25T08:25:54;23.20;99.90
19972;DHT22;10147;16.402;102.848;2024-01-25T08:28:24;23.20;99.90
19972;DHT22;10147;16.402;102.848;2024-01-25T08:30:55;23.20;99.90
19972;DHT22;10147;16.402;102.848;2024-01-25T08:33:26;23.00;99.90
19972;DHT22;10147;16.402;102.848;2024-01-25T08:35:57;23.20;99.90
19972;DHT22;10147;16.402;102.848;2024-01-25T08:38:28;23.10;99.90
19972;DHT22;10147;16.402;102.848;2024-01-25T08:40:59;23.30;99.90
19972;DHT22;10147;16.402;102.848;2024-01-25T08:43:30;23.20;99.90
19972;DHT22;10147;16.402;102.848;2024-01-25T08:46:02;23.30;99.90
19972;DHT22;10147;16.402;102.848;2024-01-25T08:48:33;23.20;99.90
19972;DHT22;10147;16.402;102.848;2024-01-25T08:51:04;23.30;99.90
19972;DHT22;10147;16.402;102.848;2024-01-25T08:53:35;23.20;99.90
19972;DHT22;10147;16.402;102.848;2024-01-25T08:56:05;22.90;99.90
19972;DHT22;10147;16.402;102.848;2024-01-25T08:58:36;22.90;99.90
19972;DHT22;10147;16.402;102.848;2024-01-25T09:01:06;23.00;99.90
19972;DHT22;10147;16.402;102.848;2024-01-25T09:03:36;23.00;99.90
19972;DHT22;10147;16.402;102.848;2024-01-25T09:06:08;23.00;99.90
19972;DHT22;10147;16.402;102.848;2024-01-25T09:08:39;23.10;99.90
19972;DHT22;10147;16.402;102.848;2024-01-25T09:11:10;23.20;99.90
19972;DHT22;10147;16.402;102.848;2024-01-25T09:13:40;23.20;99.90
19972;DHT22;10147;16.402;102.848;2024-01-25T09:16:16;23.30;99.90
19972;DHT22;10147;16.402;102.848;2024-01-25T09:18:47;23.20;99.90
19972;DHT22;10147;16.402;102.848;2024-01-25T09:21:17;23.20;99.90
19972;DHT22;10147;16.402;102.848;2024-01-25T09:23:47;23.10;99.90
19972;DHT22;10147;16.402;102.848;2024-01-25T09:26:17;23.10;99.90
19972;DHT22;10147;16.402;102.848;2024-01-25T09:28:47;23.10;99.90
19972;DHT22;10147;16.402;102.848;2024-01-25T09:31:18;23.10;99.90
19972;DHT22;10147;16.402;102.848;2024-01-25T09:33:49;23.00;99.90
19972;DHT22;10147;16.402;102.848;2024-01-25T09:36:20;23.00;99.90
19972;DHT22;10147;16.402;102.848;2024-01-25T09:38:51;23.00;99.90
19972;DHT22;10147;16.402;102.848;2024-01-25T09:41:21;22.90;99.90
19972;DHT22;10147;16.402;102.848;2024-01-25T09:43:54;22.90;99.90
19972;DHT22;10147;16.402;102.848;2024-01-25T09:46:26;22.80;99.90
19972;DHT22;10147;16.402;102.848;2024-01-25T09:48:56;22.70;99.90
19972;DHT22;10147;16.402;102.848;2024-01-25T09:51:29;22.80;99.90
19972;DHT22;10147;16.402;102.848;2024-01-25T09:54:08;22.70;99.90
19972;DHT22;10147;16.402;102.848;2024-01-25T09:56:40;22.80;99.90
19972;DHT22;10147;16.402;102.848;2024-01-25T09:59:11;22.80;99.90
19972;DHT22;10147;16.402;102.848;2024-01-25T10:01:41;22.70;99.90
19972;DHT22;10147;16.402;102.848;2024-01-25T10:04:12;22.80;99.90
19972;DHT22;10147;16.402;102.848;2024-01-25T10:06:42;22.60;99.90
19972;DHT22;10147;16.402;102.848;2024-01-25T10:09:12;22.60;99.90
19972;DHT22;10147;16.402;102.848;2024-01-25T10:11:43;22.60;99.90
19972;DHT22;10147;16.402;102.848;2024-01-25T10:14:26;22.60;99.90
19972;DHT22;10147;16.402;102.848;2024-01-25T10:16:56;22.60;99.90
19972;DHT22;10147;16.402;102.848;2024-01-25T10:19:27;22.60;99.90
19972;DHT22;10147;16.402;102.848;2024-01-25T10:21:57;22.60;99.90
19972;DHT22;10147;16.402;102.848;2024-01-25T10:24:28;22.60;99.90
19972;DHT22;10147;16.402;102.848;2024-01-25T10:26:59;22.60;99.90
19972;DHT22;10147;16.402;102.848;2024-01-25T10:29:29;22.60;99.90
19972;DHT22;10147;16.402;102.848;2024-01-25T10:32:00;22.60;99.90
19972;DHT22;10147;16.402;102.848;2024-01-25T10:34:31;22.60;99.90
19972;DHT22;10147;16.402;102.848;2024-01-25T10:37:05;22.60;99.90
19972;DHT22;10147;16.402;102.848;2024-01-25T10:39:37;22.60;99.90
19972;DHT22;10147;16.402;102.848;2024-01-25T10:42:07;22.60;99.90
19972;DHT22;10147;16.402;102.848;2024-01-25T10:44:39;22.30;99.90
19972;DHT22;10147;16.402;102.848;2024-01-25T10:47:11;22.60;99.90
19972;DHT22;10147;16.402;102.848;2024-01-25T10:49:41;22.60;99.90
19972;DHT22;10147;16.402;102.848;2024-01-25T10:52:12;22.50;99.90
19972;DHT22;10147;16.402;102.848;2024-01-25T10:54:43;22.40;99.90
19972;DHT22;10147;16.402;102.848;2024-01-25T10:57:14;22.40;99.90
19972;DHT22;10147;16.402;102.848;2024-01-25T10:59:44;22.40;99.90
19972;DHT22;10147;16.402;102.848;2024-01-25T11:02:18;22.40;99.90
19972;DHT22;10147;16.402;102.848;2024-01-25T11:04:55;22.50;99.90
19972;DHT22;10147;16.402;102.848;2024-01-25T11:07:26;22.40;99.90
19972;DHT22;10147;16.402;102.848;2024-01-25T11:09:56;22.40;99.90
19972;DHT22;10147;16.402;102.848;2024-01-25T11:12:26;22.40;99.90
19972;DHT22;10147;16.402;102.848;2024-01-25T11:14:58;22.40;99.90
19972;DHT22;10147;16.402;102.848;2024-01-25T11:17:32;22.40;99.90
19972;DHT22;10147;16.402;102.848;2024-01-25T11:20:03;22.50;99.90
19972;DHT22;10147;16.402;102.848;2024-01-25T11:22:37;22.40;99.90
19972;DHT22;10147;16.402;102.848;2024-01-25T11:25:27;22.40;99.90
19972;DHT22;10147;16.402;102.848;2024-01-25T11:27:59;22.20;99.90
19972;DHT22;10147;16.402;102.848;2024-01-25T11:30:33;22.20;99.90
19972;DHT22;10147;16.402;102.848;2024-01-25T11:33:07;22.20;99.90
19972;DHT22;10147;16.402;102.848;2024-01-25T11:35:39;22.20;99.90
19972;DHT22;10147;16.402;102.848;2024-01-25T11:38:11;22.10;99.90
19972;DHT22;10147;16.402;102.848;2024-01-25T11:40:41;22.10;99.90
19972;DHT22;10147;16.402;102.848;2024-01-25T11:43:12;22.10;99.90
19972;DHT22;10147;16.402;102.848;2024-01-25T11:45:45;22.00;99.90
19972;DHT22;10147;16.402;102.848;2024-01-25T11:48:18;22.00;99.90
19972;DHT22;10147;16.402;102.848;2024-01-25T11:50:49;21.80;99.90
19972;DHT22;10147;16.402;102.848;2024-01-25T11:53:19;21.80;99.90
19972;DHT22;10147;16.402;102.848;2024-01-25T11:55:49;21.80;99.90
19972;DHT22;10147;16.402;102.848;2024-01-25T11:58:20;21.90;99.90
19972;DHT22;10147;16.402;102.848;2024-01-25T12:00:51;21.90;99.90
19972;DHT22;10147;16.402;102.848;2024-01-25T12:03:22;21.90;99.90
19972;DHT22;10147;16.402;102.848;2024-01-25T12:05:53;22.00;99.90
19972;DHT22;10147;16.402;102.848;2024-01-25T12:08:23;21.90;99.90
19972;DHT22;10147;16.402;102.848;2024-01-25T12:11:04;22.00;99.90
19972;DHT22;10147;16.402;102.848;2024-01-25T12:13:42;21.90;99.90
19972;DHT22;10147;16.402;102.848;2024-01-25T12:16:12;21.90;99.90
19972;DHT22;10147;16.402;102.848;2024-01-25T12:18:43;21.90;99.90
19972;DHT22;10147;16.402;102.848;2024-01-25T12:21:14;21.90;99.90
19972;DHT22;10147;16.402;102.848;2024-01-25T12:23:45;21.80;99.90
19972;DHT22;10147;16.402;102.848;2024-01-25T12:26:15;21.90;99.90
19972;DHT22;10147;16.402;102.848;2024-01-25T12:28:48;21.80;99.90
19972;DHT22;10147;16.402;102.848;2024-01-25T12:31:19;21.90;99.90
19972;DHT22;10147;16.402;102.848;2024-01-25T12:33:50;22.00;99.90
19972;DHT22;10147;16.402;102.848;2024-01-25T12:36:21;22.00;99.90
19972;DHT22;10147;16.402;102.848;2024-01-25T12:38:50;22.00;99.90
19972;DHT22;10147;16.402;102.848;2024-01-25T12:41:21;22.00;99.90
19972;DHT22;10147;16.402;102.848;2024-01-25T12:43:56;21.80;99.90
19972;DHT22;10147;16.402;102.848;2024-01-25T12:46:29;21.80;99.90
19972;DHT22;10147;16.402;102.848;2024-01-25T12:49:00;21.80;99.90
19972;DHT22;10147;16.402;102.848;2024-01-25T12:51:31;21.80;99.90
19972;DHT22;10147;16.402;102.848;2024-01-25T12:54:02;21.90;99.90
19972;DHT22;10147;16.402;102.848;2024-01-25T12:56:32;21.90;99.90
19972;DHT22;10147;16.402;102.848;2024-01-25T12:59:02;21.80;99.90
19972;DHT22;10147;16.402;102.848;2024-01-25T13:01:33;21.80;99.90
19972;DHT22;10147;16.402;102.848;2024-01-25T13:04:04;21.80;99.90
19972;DHT22;10147;16.402;102.848;2024-01-25T13:06:35;21.80;99.90
19972;DHT22;10147;16.402;102.848;2024-01-25T13:09:05;21.80;99.90
19972;DHT22;10147;16.402;102.848;2024-01-25T13:11:35;21.90;99.90
19972;DHT22;10147;16.402;102.848;2024-01-25T13:14:05;21.90;99.90
19972;DHT22;10147;16.402;102.848;2024-01-25T13:16:35;21.90;99.90
19972;DHT22;10147;16.402;102.848;2024-01-25T13:19:06;21.80;99.90
19972;DHT22;10147;16.402;102.848;2024-01-25T13:21:37;21.70;99.90
19972;DHT22;10147;16.402;102.848;2024-01-25T13:24:09;21.70;99.90
19972;DHT22;10147;16.402;102.848;2024-01-25T13:26:39;21.70;99.90
19972;DHT22;10147;16.402;102.848;2024-01-25T13:29:09;21.60;99.90
19972;DHT22;10147;16.402;102.848;2024-01-25T13:31:42;21.60;99.90
19972;DHT22;10147;16.402;102.848;2024-01-25T13:34:12;21.60;99.90
19972;DHT22;10147;16.402;102.848;2024-01-25T13:36:43;21.60;99.90
19972;DHT22;10147;16.402;102.848;2024-01-25T13:39:14;21.60;99.90
19972;DHT22;10147;16.402;102.848;2024-01-25T13:41:44;21.50;99.90
19972;DHT22;10147;16.402;102.848;2024-01-25T13:44:16;21.50;99.90
19972;DHT22;10147;16.402;102.848;2024-01-25T13:46:47;21.50;99.90
19972;DHT22;10147;16.402;102.848;2024-01-25T13:49:19;21.40;99.90
19972;DHT22;10147;16.402;102.848;2024-01-25T13:51:49;21.50;99.90
19972;DHT22;10147;16.402;102.848;2024-01-25T13:54:20;21.60;99.90
19972;DHT22;10147;16.402;102.848;2024-01-25T13:56:50;21.50;99.90
19972;DHT22;10147;16.402;102.848;2024-01-25T13:59:20;21.50;99.90
19972;DHT22;10147;16.402;102.848;2024-01-25T14:01:52;21.60;99.90
19972;DHT22;10147;16.402;102.848;2024-01-25T14:04:26;21.60;99.90
19972;DHT22;10147;16.402;102.848;2024-01-25T14:06:57;21.60;99.90
19972;DHT22;10147;16.402;102.848;2024-01-25T14:09:33;21.50;99.90
19972;DHT22;10147;16.402;102.848;2024-01-25T14:12:05;21.50;99.90
19972;DHT22;10147;16.402;102.848;2024-01-25T14:14:38;21.50;99.90
19972;DHT22;10147;16.402;102.848;2024-01-25T14:17:09;21.40;99.90
19972;DHT22;10147;16.402;102.848;2024-01-25T14:19:40;21.40;99.90
19972;DHT22;10147;16.402;102.848;2024-01-25T14:22:10;21.40;99.90
19972;DHT22;10147;16.402;102.848;2024-01-25T14:24:56;21.40;99.90
19972;DHT22;10147;16.402;102.848;2024-01-25T14:27:27;21.40;99.90
19972;DHT22;10147;16.402;102.848;2024-01-25T14:29:57;21.40;99.90
19972;DHT22;10147;16.402;102.848;2024-01-25T14:32:30;21.50;99.90
19972;DHT22;10147;16.402;102.848;2024-01-25T14:35:00;21.50;99.90
19972;DHT22;10147;16.402;102.848;2024-01-25T14:37:30;21.50;99.90
19972;DHT22;10147;16.402;102.848;2024-01-25T14:40:01;21.50;99.90
19972;DHT22;10147;16.402;102.848;2024-01-25T14:42:52;21.50;99.90
19972;DHT22;10147;16.402;102.848;2024-01-25T14:45:25;21.40;99.90
19972;DHT22;10147;16.402;102.848;2024-01-25T14:47:58;21.40;99.90
19972;DHT22;10147;16.402;102.848;2024-01-25T14:50:29;21.40;99.90
19972;DHT22;10147;16.402;102.848;2024-01-25T14:53:00;21.40;99.90
19972;DHT22;10147;16.402;102.848;2024-01-25T14:55:30;21.30;99.90
19972;DHT22;10147;16.402;102.848;2024-01-25T14:58:00;21.30;99.90
19972;DHT22;10147;16.402;102.848;2024-01-25T15:00:30;21.30;99.90
19972;DHT22;10147;16.402;102.848;2024-01-25T15:03:01;21.30;99.90
19972;DHT22;10147;16.402;102.848;2024-01-25T15:05:31;21.30;99.90
19972;DHT22;10147;16.402;102.848;2024-01-25T15:08:02;21.30;99.90
19972;DHT22;10147;16.402;102.848;2024-01-25T15:10:32;21.30;99.90
19972;DHT22;10147;16.402;102.848;2024-01-25T15:13:03;21.30;99.90
19972;DHT22;10147;16.402;102.848;2024-01-25T15:15:33;21.30;99.90
19972;DHT22;10147;16.402;102.848;2024-01-25T15:18:04;21.20;99.90
19972;DHT22;10147;16.402;102.848;2024-01-25T15:20:35;21.20;99.90
19972;DHT22;10147;16.402;102.848;2024-01-25T15:23:06;21.30;99.90
19972;DHT22;10147;16.402;102.848;2024-01-25T15:25:37;21.30;99.90
19972;DHT22;10147;16.402;102.848;2024-01-25T15:28:07;21.30;99.90